Time;durP1;ratioP1;P1;durP2;ratioP2;P2;SDS_P1;SDS_P2;PMS_P1;PMS_P2;Temp;Humidity;BMP_temperature;BMP_pressure;BME280_temperature;BME280_humidity;BME280_pressure;Samples;Min_cycle;Max_cycle;Signal;HPM_P1;HPM_P2
2022/05/11 00:23:12;;;;;;;17.20;2.70;;;;;;;17.32;nan;101563.88;4935371;29;21059;-86
2022/05/11 00:25:40;;;;;;;10.70;2.10;;;;;;;17.29;nan;101571.75;4920344;29;20523;-86
2022/05/11 00:28:07;;;;;;;8.23;2.80;;;;;;;17.23;nan;101563.28;4920932;29;20950;-86
2022/05/11 00:30:35;;;;;;;5.70;2.27;;;;;;;17.20;nan;101560.09;4920528;29;20455;-86
2022/05/11 00:33:03;;;;;;;4.47;2.80;;;;;;;17.16;nan;101556.91;4937122;29;20460;-87
2022/05/11 00:35:33;;;;;;;6.90;2.20;;;;;;;17.13;nan;101556.50;4937262;29;20455;-86
2022/05/11 00:38:01;;;;;;;3.23;1.90;;;;;;;17.13;nan;101551.81;4936725;29;20460;-86
2022/05/11 00:40:30;;;;;;;3.80;1.90;;;;;;;17.08;nan;101554.41;4924314;29;20453;-86
2022/05/11 00:42:59;;;;;;;17.47;2.40;;;;;;;17.06;nan;101551.00;4900961;29;20468;-86
2022/05/11 00:45:27;;;;;;;5.77;1.83;;;;;;;17.01;nan;101547.19;4908449;29;21018;-86
2022/05/11 00:48:01;;;;;;;2.90;1.77;;;;;;;17.00;nan;101546.34;4920317;29;20452;-87
2022/05/11 00:50:33;;;;;;;5.73;1.70;;;;;;;16.97;nan;101545.91;4904810;29;20447;-87
2022/05/11 00:53:11;;;;;;;4.50;2.63;;;;;;;16.92;nan;101535.53;4937156;29;20941;-87
2022/05/11 00:55:42;;;;;;;8.33;2.30;;;;;;;16.94;nan;101547.19;4916185;29;20453;-86
2022/05/11 00:58:18;;;;;;;11.10;2.77;;;;;;;16.94;nan;101541.66;4905081;29;20464;-88
2022/05/11 01:00:46;;;;;;;5.17;2.27;;;;;;;16.92;nan;101535.53;4935901;29;20961;-86
2022/05/11 01:03:34;;;;;;;9.10;2.17;;;;;;;16.87;nan;101524.28;4935714;29;20483;-87
2022/05/11 01:06:02;;;;;;;6.83;1.97;;;;;;;16.80;nan;101518.78;4921119;29;20452;-86
2022/05/11 01:08:29;;;;;;;7.63;2.10;;;;;;;16.73;nan;101514.34;4920341;29;20463;-87
2022/05/11 01:10:59;;;;;;;6.33;2.37;;;;;;;16.75;nan;101520.47;4903584;29;20466;-86
2022/05/11 01:13:31;;;;;;;4.80;2.03;;;;;;;16.68;nan;101503.94;4936805;29;20828;-86
2022/05/11 01:16:14;;;;;;;4.30;1.90;;;;;;;16.62;nan;101495.63;4943623;29;20451;-87
2022/05/11 01:19:02;;;;;;;5.77;2.13;;;;;;;16.57;nan;101485.22;4916092;29;20513;-87
2022/05/11 01:21:50;;;;;;;10.40;2.60;;;;;;;16.57;nan;101474.19;4925542;28;20513;-87
2022/05/11 01:24:55;;;;;;;8.13;2.40;;;;;;;16.70;nan;101496.31;4959367;28;20486;-86
2022/05/11 01:28:16;;;;;;;3.43;1.93;;;;;;;16.72;nan;101494.19;4941846;28;20455;-87
2022/05/11 01:30:49;;;;;;;4.73;2.37;;;;;;;16.73;nan;101495.03;4862652;29;20451;-86
2022/05/11 01:33:19;;;;;;;7.47;2.47;;;;;;;16.64;nan;101486.09;4832306;29;20496;-86
2022/05/11 01:35:47;;;;;;;9.20;2.90;;;;;;;16.73;nan;101506.06;4771706;30;20466;-86
2022/05/11 01:38:27;;;;;;;10.23;2.50;;;;;;;16.72;nan;101501.59;4771729;30;20527;-86
2022/05/11 01:40:56;;;;;;;10.10;2.60;;;;;;;16.68;nan;101497.56;4772018;30;20459;-86
2022/05/11 01:43:26;;;;;;;10.30;2.30;;;;;;;16.65;nan;101478.69;4776730;29;20489;-87
2022/05/11 01:45:54;;;;;;;8.73;2.87;;;;;;;16.62;nan;101490.13;4789363;29;20458;-87
2022/05/11 01:49:14;;;;;;;5.10;2.60;;;;;;;16.59;nan;101481.19;4774292;29;20466;-87
2022/05/11 01:51:53;;;;;;;8.53;2.33;;;;;;;16.46;nan;101470.19;4799509;29;20455;-87
2022/05/11 01:54:22;;;;;;;6.50;2.47;;;;;;;16.41;nan;101456.19;4759871;29;20856;-87
2022/05/11 01:57:08;;;;;;;9.90;2.57;;;;;;;16.40;nan;101454.50;4778168;29;20462;-87
2022/05/11 01:59:36;;;;;;;5.03;2.50;;;;;;;16.40;nan;101460.00;4798370;29;20458;-87
2022/05/11 02:02:04;;;;;;;11.00;2.97;;;;;;;16.36;nan;101450.47;4849100;29;20461;-87
2022/05/11 02:10:06;;;;;;;8.53;2.80;;;;;;;16.40;nan;101465.53;4958098;28;20441;-87
2022/05/11 02:12:33;;;;;;;6.47;2.50;;;;;;;16.35;nan;101476.38;4941314;28;20454;-89
2022/05/11 02:15:01;;;;;;;6.33;2.63;;;;;;;16.29;nan;101460.66;4913266;29;20471;-88
2022/05/11 02:17:29;;;;;;;5.80;2.10;;;;;;;16.15;nan;101443.28;4922580;29;20825;-89
2022/05/11 02:20:07;;;;;;;7.80;3.03;;;;;;;16.09;nan;101424.84;4907062;29;20450;-87
2022/05/11 02:22:47;;;;;;;4.00;2.17;;;;;;;16.14;nan;101446.25;4946604;29;20451;-89
2022/05/11 02:28:57;;;;;;;3.20;2.27;;;;;;;16.10;nan;101439.47;4955044;29;20451;-88
2022/05/11 02:31:30;;;;;;;7.57;2.53;;;;;;;16.09;nan;101424.84;4938516;29;20451;-88
2022/05/11 02:34:03;;;;;;;3.53;2.13;;;;;;;16.12;nan;101440.97;4906952;29;21025;-88
2022/05/11 02:36:32;;;;;;;10.43;2.23;;;;;;;16.07;nan;101445.41;4922478;29;20949;-88
2022/05/11 02:39:00;;;;;;;10.90;2.40;;;;;;;16.02;nan;101434.16;4912679;28;20828;-89
2022/05/11 02:41:29;;;;;;;5.00;2.13;;;;;;;16.12;nan;101443.72;4920749;29;20451;-88
2022/05/11 02:43:56;;;;;;;5.50;2.40;;;;;;;16.12;nan;101442.88;4920664;28;20482;-89
2022/05/11 02:46:24;;;;;;;4.27;1.93;;;;;;;16.11;nan;101439.25;4925332;28;20467;-88
2022/05/11 02:48:52;;;;;;;3.73;2.50;;;;;;;16.10;nan;101445.84;4941167;28;20457;-88
2022/05/11 02:51:19;;;;;;;5.70;2.50;;;;;;;16.08;nan;101442.44;4955667;28;20453;-88
2022/05/11 02:53:47;;;;;;;4.90;2.20;;;;;;;16.07;nan;101445.41;4920947;29;20470;-89
2022/05/11 02:56:16;;;;;;;5.33;2.47;;;;;;;16.04;nan;101445.81;4910880;28;20461;-88
2022/05/11 02:58:44;;;;;;;7.30;3.10;;;;;;;15.96;nan;101435.88;4957570;28;20504;-88
2022/05/11 03:01:13;;;;;;;2.67;1.93;;;;;;;16.00;nan;101444.56;4937708;29;20853;-88
2022/05/11 03:03:41;;;;;;;6.50;2.50;;;;;;;15.93;nan;101443.72;4919481;29;20449;-88
2022/05/11 03:06:09;;;;;;;4.40;2.27;;;;;;;15.82;nan;101429.50;4947919;28;20466;-88
2022/05/11 03:08:55;;;;;;;7.17;2.37;;;;;;;15.93;nan;101454.75;4925161;29;20443;-88
2022/05/11 03:11:47;;;;;;;5.30;2.40;;;;;;;15.87;nan;101465.56;4941511;29;20446;-88
2022/05/11 03:14:33;;;;;;;5.93;2.53;;;;;;;15.74;nan;101448.16;4940924;29;20472;-88
2022/05/11 03:17:24;;;;;;;5.33;2.53;;;;;;;15.83;nan;101463.41;4921947;29;20467;-88
2022/05/11 03:23:19;;;;;;;9.30;2.50;;;;;;;15.63;nan;101432.22;4956283;28;20458;-88
2022/05/11 03:25:47;;;;;;;3.90;2.10;;;;;;;15.65;nan;101447.50;4939362;29;20483;-88
2022/05/11 03:34:49;;;;;;;5.40;2.50;;;;;;;15.41;nan;101428.78;4937711;29;21021;-88
2022/05/11 03:38:09;;;;;;;3.83;1.90;;;;;;;15.54;nan;101448.09;4937829;29;20438;-88
2022/05/11 03:44:23;;;;;;;3.50;2.00;;;;;;;15.50;nan;101442.16;4938738;29;20497;-88
2022/05/11 03:47:02;;;;;;;9.20;2.80;;;;;;;15.44;nan;101440.22;4925681;29;20459;-88
2022/05/11 03:49:37;;;;;;;6.37;2.30;;;;;;;15.50;nan;101441.31;4906425;29;20463;-88
2022/05/11 03:52:23;;;;;;;4.70;2.60;;;;;;;15.48;nan;101444.28;4930779;29;20443;-88
2022/05/11 03:54:51;;;;;;;4.70;2.50;;;;;;;15.40;nan;101438.09;4943170;29;20451;-88
2022/05/11 03:57:25;;;;;;;3.90;2.40;;;;;;;15.42;nan;101447.00;4906284;29;20461;-88
2022/05/11 03:59:53;;;;;;;6.83;2.37;;;;;;;15.41;nan;101442.53;4946820;29;20958;-88
2022/05/11 04:02:36;;;;;;;3.30;1.70;;;;;;;15.31;nan;101431.09;4938066;29;20459;-88
2022/05/11 04:05:07;;;;;;;5.67;2.50;;;;;;;15.25;nan;101423.66;4922699;29;20477;-88
2022/05/11 04:07:54;;;;;;;12.80;2.60;;;;;;;15.34;nan;101438.94;4951472;29;20487;-88
2022/05/11 04:10:43;;;;;;;10.60;2.97;;;;;;;15.20;nan;101416.84;4943050;29;20459;-88
2022/05/11 04:13:14;;;;;;;5.20;2.20;;;;;;;15.24;nan;101421.97;4940048;29;20458;-88
2022/05/11 04:16:32;;;;;;;4.93;2.10;;;;;;;15.34;nan;101428.78;4940373;29;20443;-88
2022/05/11 04:19:01;;;;;;;4.10;2.43;;;;;;;15.29;nan;101424.94;4955980;28;20438;-86
2022/05/11 04:21:31;;;;;;;4.67;2.57;;;;;;;15.26;nan;101408.81;4919129;29;20452;-88
2022/05/11 04:24:41;;;;;;;8.30;2.53;;;;;;;15.32;nan;101419.03;4938975;29;20473;-88
2022/05/11 04:27:09;;;;;;;4.70;2.17;;;;;;;15.16;nan;101399.09;4956991;28;20462;-87
2022/05/11 04:29:49;;;;;;;4.00;2.30;;;;;;;15.15;nan;101391.88;4937942;29;20944;-88
2022/05/11 04:32:18;;;;;;;6.33;2.43;;;;;;;15.12;nan;101386.78;4936711;29;20956;-87
2022/05/11 04:34:46;;;;;;;4.40;2.07;;;;;;;15.06;nan;101371.09;4920965;29;20448;-87
2022/05/11 04:37:14;;;;;;;2.33;1.70;;;;;;;15.13;nan;101385.72;4936983;29;20856;-87
2022/05/11 04:39:57;;;;;;;4.87;2.27;;;;;;;15.06;nan;101376.59;4936495;29;20452;-88
2022/05/11 04:42:47;;;;;;;7.97;2.33;;;;;;;15.14;nan;101392.06;4932966;29;20830;-88
2022/05/11 04:45:30;;;;;;;10.90;2.30;;;;;;;15.09;nan;101386.34;4936475;29;20483;-87
2022/05/11 04:48:02;;;;;;;3.97;2.40;;;;;;;15.05;nan;101385.06;4909399;29;20954;-88
2022/05/11 04:50:30;;;;;;;4.23;2.30;;;;;;;15.05;nan;101380.41;4939067;29;20447;-88
2022/05/11 04:52:58;;;;;;;4.70;2.50;;;;;;;15.02;nan;101379.97;4920485;29;20462;-87
2022/05/11 04:55:26;;;;;;;4.30;2.10;;;;;;;14.99;nan;101375.75;4927948;29;20447;-88
2022/05/11 04:58:06;;;;;;;5.90;2.57;;;;;;;14.97;nan;101366.84;4944123;29;20462;-88
2022/05/11 05:00:46;;;;;;;3.30;2.60;;;;;;;14.94;nan;101372.75;4938715;29;20455;-88
2022/05/11 05:03:14;;;;;;;7.63;2.60;;;;;;;14.86;nan;101365.53;4920372;29;20464;-88
2022/05/11 05:05:43;;;;;;;6.27;2.70;;;;;;;14.91;nan;101367.66;4935275;29;20488;-89
2022/05/11 05:08:20;;;;;;;3.10;2.10;;;;;;;14.89;nan;101361.50;4935767;29;20460;-87
2022/05/11 05:10:52;;;;;;;2.90;2.40;;;;;;;14.91;nan;101377.81;4935610;29;20452;-88
2022/05/11 05:13:21;;;;;;;4.30;2.20;;;;;;;14.79;nan;101363.81;4951850;29;20452;-88
2022/05/11 05:15:54;;;;;;;8.03;2.20;;;;;;;14.82;nan;101377.13;4930635;29;20462;-88
2022/05/11 05:18:22;;;;;;;4.37;2.40;;;;;;;14.74;nan;101360.81;4923582;29;20454;-88
2022/05/11 05:20:50;;;;;;;6.07;2.50;;;;;;;14.76;nan;101378.84;4923378;29;20470;-88
2022/05/11 05:23:18;;;;;;;8.20;2.40;;;;;;;14.78;nan;101378.63;4923546;29;21102;-88
2022/05/11 05:25:46;;;;;;;4.83;2.77;;;;;;;14.75;nan;101374.38;4954722;29;20498;-89
2022/05/11 05:31:05;;;;;;;4.43;2.17;;;;;;;14.66;nan;101383.00;4945779;28;20461;-89
2022/05/11 05:33:35;;;;;;;4.80;1.90;;;;;;;14.62;nan;101379.00;4846789;29;20443;-88
2022/05/11 05:36:04;;;;;;;7.17;2.20;;;;;;;14.57;nan;101374.09;4844239;29;20440;-88
2022/05/11 05:38:42;;;;;;;7.07;2.40;;;;;;;14.59;nan;101371.16;4845607;29;20825;-88
2022/05/11 05:41:15;;;;;;;5.37;2.90;;;;;;;14.52;nan;101362.84;4868130;29;20949;-88
2022/05/11 05:43:43;;;;;;;5.33;2.30;;;;;;;14.70;nan;101381.53;4847444;29;20453;-88
2022/05/11 05:46:11;;;;;;;3.43;2.77;;;;;;;14.69;nan;101371.59;4832366;29;20551;-89
2022/05/11 05:48:39;;;;;;;7.47;3.33;;;;;;;14.77;nan;101379.69;4860646;29;20503;-88
2022/05/11 05:51:08;;;;;;;18.60;3.00;;;;;;;14.80;nan;101371.03;4881541;29;20451;-88
2022/05/11 05:53:36;;;;;;;6.90;2.97;;;;;;;14.79;nan;101363.81;4907537;29;20459;-89
2022/05/11 05:56:04;;;;;;;6.07;2.50;;;;;;;14.84;nan;101372.28;4907850;29;20443;-89
2022/05/11 05:58:45;;;;;;;7.60;3.17;;;;;;;14.80;nan;101346.25;4924761;29;20450;-88
2022/05/11 06:01:16;;;;;;;5.63;2.00;;;;;;;14.94;nan;101364.50;4940032;28;20999;-88
2022/05/11 06:03:56;;;;;;;11.50;2.60;;;;;;;14.92;nan;101344.59;4926810;28;20936;-88
2022/05/11 06:06:33;;;;;;;15.67;2.87;;;;;;;15.08;nan;101359.88;4927154;28;20508;-88
2022/05/11 06:09:03;;;;;;;15.00;4.00;;;;;;;15.17;nan;101359.47;4911288;29;20465;-88
2022/05/11 06:11:33;;;;;;;12.40;3.00;;;;;;;15.25;nan;101352.06;4908073;29;20455;-88
2022/05/11 06:14:16;;;;;;;32.03;4.37;;;;;;;15.26;nan;101334.47;4938247;29;20474;-88
2022/05/11 06:16:44;;;;;;;50.33;5.33;;;;;;;15.50;nan;101358.66;4922389;29;20473;-87
2022/05/11 06:19:40;;;;;;;44.33;5.77;;;;;;;15.62;nan;101359.75;4922769;29;20443;-88
2022/05/11 06:22:17;;;;;;;77.23;6.47;;;;;;;15.61;nan;101341.50;4938207;29;20442;-87
2022/05/11 06:24:45;;;;;;;35.60;5.33;;;;;;;15.73;nan;101348.09;4906867;29;20514;-87
2022/05/11 06:31:18;;;;;;;33.23;4.83;;;;;;;15.84;nan;101330.06;4974573;28;20446;-88
2022/05/11 06:33:49;;;;;;;13.70;3.10;;;;;;;15.99;nan;101352.72;4941685;28;20453;-88
2022/05/11 06:36:20;;;;;;;21.23;3.50;;;;;;;16.06;nan;101347.19;4945957;29;20463;-89
2022/05/11 06:38:52;;;;;;;16.63;3.67;;;;;;;16.28;nan;101369.84;4909123;28;20458;-88
2022/05/11 06:45:43;;;;;;;6.80;2.60;;;;;;;16.49;nan;101380.63;4978175;28;20465;-88
2022/05/11 07:03:38;;;;;;;6.20;2.50;;;;;;;17.16;nan;101363.53;4824466;29;21020;-88
2022/05/11 07:06:06;;;;;;;15.63;3.27;;;;;;;17.20;nan;101350.97;4795331;29;20493;-88
2022/05/11 07:08:51;;;;;;;38.00;4.73;;;;;;;17.35;nan;101349.81;4799463;29;20475;-88
2022/05/11 07:14:24;;;;;;;28.20;4.30;;;;;;;17.78;nan;101355.44;4805072;29;20514;-88
2022/05/11 07:21:07;;;;;;;7.53;3.20;;;;;;;18.20;nan;101345.47;4829304;29;20427;-85
2022/05/11 08:41:36;;;;;;;;;;;;;;;;;;;;;
2022/05/11 08:44:33;;;;;;;4.60;1.47;;;;;;;23.97;nan;101380.28;4869978;29;20560;-87
2022/05/11 08:51:12;;;;;;;7.10;1.63;;;;;;;24.35;nan;101376.38;4879048;29;20827;-87
2022/05/11 08:54:15;;;;;;;6.33;1.43;;;;;;;24.58;nan;101385.47;4849567;29;20954;-87
2022/05/11 08:56:48;;;;;;;2.70;1.30;;;;;;;24.72;nan;101397.81;4832518;29;20450;-88
2022/05/11 08:59:24;;;;;;;10.73;1.50;;;;;;;24.83;nan;101387.50;4848204;29;20977;-89
2022/05/11 09:01:58;;;;;;;4.30;1.63;;;;;;;25.02;nan;101406.38;4861349;29;20458;-88
2022/05/11 09:04:37;;;;;;;10.93;1.80;;;;;;;25.14;nan;101408.94;4859306;29;20448;-89
2022/05/11 09:07:09;;;;;;;4.17;1.50;;;;;;;25.34;nan;101416.56;4866287;29;20454;-87
2022/05/11 09:09:39;;;;;;;5.37;1.53;;;;;;;25.47;nan;101422.47;4858366;29;20448;-86
2022/05/11 09:12:11;;;;;;;4.43;1.03;;;;;;;25.51;nan;101400.34;4847539;29;20478;-87
2022/05/11 09:14:49;;;;;;;5.83;1.80;;;;;;;25.78;nan;101428.16;4883071;28;20446;-86
2022/05/11 09:17:34;;;;;;;4.53;1.70;;;;;;;25.97;nan;101436.84;4944596;28;20454;-86
2022/05/11 09:20:08;;;;;;;5.87;2.50;;;;;;;26.13;nan;101447.78;4937786;28;20455;-86
2022/05/11 09:22:43;;;;;;;14.57;2.67;;;;;;;26.24;nan;101447.75;4969004;28;20592;-87
2022/05/11 09:25:22;;;;;;;17.37;3.47;;;;;;;26.27;nan;101455.59;4942538;28;20508;-86
2022/05/11 09:27:50;;;;;;;32.77;5.93;;;;;;;26.32;nan;101467.69;4925320;28;20461;-87
2022/05/11 09:30:26;;;;;;;10.97;3.67;;;;;;;26.24;nan;101459.81;4927850;28;20474;-87
2022/05/11 09:33:22;;;;;;;8.00;2.20;;;;;;;26.34;nan;101478.63;4922735;28;20449;-86
2022/05/11 09:35:50;;;;;;;17.17;2.50;;;;;;;26.32;nan;101478.06;4930026;28;20936;-86
2022/05/11 09:38:48;;;;;;;9.57;1.90;;;;;;;26.37;nan;101472.44;4940616;29;20461;-87
2022/05/11 09:41:23;;;;;;;4.90;1.70;;;;;;;26.41;nan;101473.56;4959973;28;20813;-87
2022/05/11 09:43:54;;;;;;;4.43;1.40;;;;;;;26.48;nan;101476.94;4938061;29;20453;-87
2022/05/11 09:46:27;;;;;;;6.03;2.37;;;;;;;26.54;nan;101470.19;4951160;28;20478;-87
2022/05/11 09:49:26;;;;;;;6.30;1.77;;;;;;;26.59;nan;101472.97;4946001;28;20963;-87
2022/05/11 09:51:56;;;;;;;4.17;1.63;;;;;;;26.63;nan;101479.69;4961002;28;20453;-87
2022/05/11 09:54:48;;;;;;;6.57;1.60;;;;;;;26.69;nan;101494.56;4929933;29;20482;-87
2022/05/11 09:57:20;;;;;;;5.97;1.70;;;;;;;26.71;nan;101492.31;4916286;28;20520;-89
2022/05/11 09:59:50;;;;;;;11.90;2.30;;;;;;;26.73;nan;101499.34;4933506;29;20855;-87
2022/05/11 10:02:38;;;;;;;4.73;2.03;;;;;;;26.74;nan;101508.59;4933708;28;20453;-87
2022/05/11 10:05:08;;;;;;;10.73;2.30;;;;;;;26.73;nan;101518.97;4937384;29;20459;-87
2022/05/11 10:08:01;;;;;;;3.50;1.33;;;;;;;26.79;nan;101522.59;4928855;28;20465;-87
2022/05/11 10:10:48;;;;;;;3.53;1.50;;;;;;;26.67;nan;101508.88;4950463;28;20464;-87
2022/05/11 10:13:35;;;;;;;10.13;1.60;;;;;;;26.60;nan;101502.69;4938857;28;20822;-88
2022/05/11 10:22:13;;;;;;;4.17;2.00;;;;;;;26.87;nan;101512.75;4930743;28;20519;-87
2022/05/11 10:25:10;;;;;;;3.83;1.60;;;;;;;26.92;nan;101509.97;4937891;29;20450;-87
2022/05/11 10:27:45;;;;;;;4.27;1.60;;;;;;;27.04;nan;101513.31;4939382;28;20455;-88
2022/05/11 10:30:30;;;;;;;3.90;1.80;;;;;;;27.12;nan;101490.28;4929909;29;20940;-87
2022/05/11 10:33:28;;;;;;;7.43;1.87;;;;;;;27.28;nan;101489.09;4892021;29;20977;-87
2022/05/11 10:36:10;;;;;;;3.80;1.90;;;;;;;27.50;nan;101489.53;4915821;29;20460;-86
2022/05/11 10:38:45;;;;;;;5.33;2.07;;;;;;;27.68;nan;101473.19;4916465;29;20460;-87
2022/05/11 10:41:22;;;;;;;5.37;1.43;;;;;;;27.85;nan;101473.63;4929103;29;20452;-86
2022/05/11 10:44:02;;;;;;;1.87;1.43;;;;;;;28.00;nan;101479.13;4915549;29;20524;-87
2022/05/11 10:46:52;;;;;;;6.10;2.33;;;;;;;28.12;nan;101461.88;4917299;29;20484;-86
2022/05/11 10:49:34;;;;;;;25.80;2.40;;;;;;;28.22;nan;101461.84;4916355;29;20460;-87
2022/05/11 10:52:06;;;;;;;11.43;1.73;;;;;;;28.34;nan;101461.44;4848650;29;20456;-87
2022/05/11 10:54:58;;;;;;;5.90;2.40;;;;;;;28.46;nan;101445.03;4872932;29;20458;-86
2022/05/11 10:58:03;;;;;;;10.70;2.27;;;;;;;28.56;nan;101450.53;4874341;29;20473;-86
2022/05/11 11:00:36;;;;;;;22.37;2.80;;;;;;;28.64;nan;101438.66;4862337;29;20523;-87
2022/05/11 11:03:34;;;;;;;16.07;2.17;;;;;;;28.81;nan;101436.22;4860441;29;20463;-86
2022/05/11 11:09:21;;;;;;;5.30;1.80;;;;;;;29.16;nan;101434.09;4864476;29;20450;-86
2022/05/11 11:12:31;;;;;;;11.23;1.73;;;;;;;29.33;nan;101428.78;4901696;29;20529;-86
2022/05/11 11:15:01;;;;;;;5.30;1.80;;;;;;;29.46;nan;101413.13;4928616;29;20450;-86
2022/05/11 11:17:28;;;;;;;9.10;1.90;;;;;;;29.59;nan;101417.19;4889554;29;20821;-86
2022/05/11 11:19:58;;;;;;;4.30;1.87;;;;;;;29.73;nan;101429.38;4899082;29;20453;-87
2022/05/11 11:22:26;;;;;;;4.20;1.63;;;;;;;29.82;nan;101417.09;4903806;29;20461;-86
2022/05/11 11:25:23;;;;;;;7.30;2.13;;;;;;;29.93;nan;101428.19;4898278;29;20524;-87
2022/05/11 11:28:10;;;;;;;3.10;2.23;;;;;;;29.95;nan;101421.13;4908749;29;20950;-86
2022/05/11 11:30:39;;;;;;;5.73;2.43;;;;;;;29.94;nan;101418.59;4957389;28;20545;-87
2022/05/11 11:33:15;;;;;;;4.30;2.60;;;;;;;29.97;nan;101418.00;4935870;29;20446;-86
2022/05/11 11:35:50;;;;;;;8.47;2.67;;;;;;;29.95;nan;101409.84;4948315;29;20454;-87
2022/05/11 11:38:30;;;;;;;8.23;2.40;;;;;;;29.98;nan;101409.25;4937282;29;20513;-86
2022/05/11 11:41:17;;;;;;;13.13;2.37;;;;;;;30.11;nan;101408.47;4933674;28;20463;-86
2022/05/11 11:43:55;;;;;;;9.67;2.20;;;;;;;30.23;nan;101400.31;4946098;29;20775;-85
2022/05/11 11:46:42;;;;;;;4.43;2.40;;;;;;;30.26;nan;101400.84;4921677;29;20479;-86
2022/05/11 11:49:19;;;;;;;24.80;3.10;;;;;;;30.17;nan;101398.78;4922832;29;20453;-86
2022/05/11 11:51:53;;;;;;;6.30;2.30;;;;;;;30.05;nan;101400.38;4939358;29;20538;-86
2022/05/11 11:54:46;;;;;;;16.97;3.13;;;;;;;30.00;nan;101401.34;4948653;29;20450;-86
2022/05/11 11:57:22;;;;;;;8.10;2.40;;;;;;;30.02;nan;101399.00;4955166;29;20447;-87
2022/05/11 11:59:52;;;;;;;8.17;2.27;;;;;;;30.06;nan;101397.25;4953081;29;20950;-86
2022/05/11 12:02:29;;;;;;;7.73;2.50;;;;;;;30.11;nan;101394.34;4939344;29;20798;-87
2022/05/11 12:05:01;;;;;;;8.53;1.80;;;;;;;30.18;nan;101386.34;4953065;29;21171;-86
2022/05/11 12:16:22;;;;;;;6.00;2.30;;;;;;;30.86;nan;101381.91;4953782;29;20423;-86
2022/05/11 12:18:52;;;;;;;4.80;2.10;;;;;;;31.00;nan;101384.72;4938848;29;20949;-87
2022/05/11 12:21:30;;;;;;;6.43;2.37;;;;;;;31.10;nan;101379.69;4954657;29;20434;-86
2022/05/11 12:24:04;;;;;;;4.83;2.30;;;;;;;31.18;nan;101383.78;4954294;29;20514;-86
2022/05/11 12:26:40;;;;;;;6.33;2.20;;;;;;;31.27;nan;101372.59;4954652;29;20477;-87
2022/05/11 12:37:23;;;;;;;5.00;1.60;;;;;;;31.45;nan;101389.38;4954920;29;20514;-87
2022/05/11 12:40:15;;;;;;;3.73;1.80;;;;;;;31.50;nan;101380.78;4939522;29;20454;-86
2022/05/11 13:02:15;;;;;;;7.23;2.10;;;;;;;32.11;nan;101358.63;4956471;29;20458;-86
2022/05/11 13:04:48;;;;;;;6.43;2.10;;;;;;;32.34;nan;101373.59;4939270;29;20809;-86
2022/05/11 13:07:17;;;;;;;7.87;1.90;;;;;;;32.32;nan;101368.28;4923696;29;20482;-86
2022/05/11 13:09:45;;;;;;;7.57;2.60;;;;;;;32.37;nan;101368.13;4923623;29;20964;-87
2022/05/11 13:12:14;;;;;;;3.57;2.07;;;;;;;32.47;nan;101361.34;4907993;29;20445;-87
2022/05/11 13:14:49;;;;;;;8.93;2.20;;;;;;;32.65;nan;101365.91;4923471;29;20450;-87
2022/05/11 13:17:35;;;;;;;6.60;2.07;;;;;;;32.80;nan;101359.81;4907606;29;20446;-87
2022/05/11 13:20:06;;;;;;;5.73;2.03;;;;;;;32.86;nan;101363.34;4939035;29;20446;-86
2022/05/11 13:22:35;;;;;;;4.10;2.27;;;;;;;32.79;nan;101360.16;4923142;29;20872;-86
2022/05/11 13:25:05;;;;;;;7.13;2.37;;;;;;;32.70;nan;101357.28;4907336;29;20937;-87
2022/05/11 13:27:38;;;;;;;4.23;2.10;;;;;;;32.65;nan;101350.94;4930956;29;20479;-86
2022/05/11 13:30:09;;;;;;;6.67;2.10;;;;;;;32.68;nan;101370.94;4916353;29;20885;-86
2022/05/11 13:48:45;;;;;;;7.00;2.00;;;;;;;32.42;nan;101375.63;4933069;29;20645;-85
2022/05/11 13:51:18;;;;;;;8.13;2.40;;;;;;;32.45;nan;101375.00;4903993;29;20451;-85
2022/05/11 13:53:55;;;;;;;8.13;2.17;;;;;;;32.55;nan;101363.38;4904360;29;20907;-86
2022/05/11 13:56:28;;;;;;;8.57;2.00;;;;;;;32.65;nan;101357.41;4918428;29;20443;-86
2022/05/11 13:59:00;;;;;;;7.70;2.00;;;;;;;32.71;nan;101356.13;4935147;29;20439;-86
2022/05/11 14:01:48;;;;;;;5.03;2.53;;;;;;;32.85;nan;101359.69;4930226;29;20479;-86
2022/05/11 14:04:25;;;;;;;10.97;2.40;;;;;;;32.99;nan;101347.38;4931288;29;20455;-86
2022/05/11 14:07:05;;;;;;;3.13;1.60;;;;;;;33.07;nan;101347.41;4885741;29;20475;-86
2022/05/11 14:09:35;;;;;;;7.77;2.20;;;;;;;33.16;nan;101336.91;4829073;29;20443;-86
2022/05/11 14:12:06;;;;;;;4.57;2.00;;;;;;;33.35;nan;101330.09;4832736;29;20438;-88
2022/05/11 14:14:34;;;;;;;5.17;1.97;;;;;;;33.47;nan;101333.97;4874689;29;20462;-86
2022/05/11 14:17:07;;;;;;;7.97;2.20;;;;;;;33.67;nan;101323.94;4847092;29;20450;-85
2022/05/11 14:19:35;;;;;;;11.37;1.97;;;;;;;33.83;nan;101315.75;4861912;29;20454;-85
2022/05/11 14:22:05;;;;;;;10.43;2.17;;;;;;;34.01;nan;101317.38;4845635;29;20458;-86
2022/05/11 14:24:33;;;;;;;4.97;2.10;;;;;;;34.15;nan;101311.47;4832096;29;20525;-85
2022/05/11 14:27:01;;;;;;;8.27;2.13;;;;;;;34.18;nan;101307.97;4803404;29;20576;-87
2022/05/11 14:29:29;;;;;;;4.50;1.90;;;;;;;34.17;nan;101301.47;4860522;29;20464;-86
2022/05/11 14:31:57;;;;;;;5.30;2.23;;;;;;;34.17;nan;101301.47;4846010;29;20454;-86
2022/05/11 14:34:26;;;;;;;6.53;2.10;;;;;;;34.16;nan;101282.78;4845998;29;20458;-86
2022/05/11 14:36:55;;;;;;;12.13;2.57;;;;;;;34.16;nan;101296.97;4831379;29;20446;-86
2022/05/11 14:39:28;;;;;;;9.23;1.97;;;;;;;34.15;nan;101315.16;4860723;29;20497;-86
2022/05/11 14:41:57;;;;;;;4.20;1.67;;;;;;;34.04;nan;101308.19;4876808;29;20585;-86
2022/05/11 14:44:25;;;;;;;3.13;1.73;;;;;;;33.96;nan;101306.19;4887606;29;20956;-86
2022/05/11 14:47:12;;;;;;;5.60;1.60;;;;;;;33.92;nan;101306.03;4902201;29;20540;-86
2022/05/11 14:49:44;;;;;;;7.53;2.20;;;;;;;33.90;nan;101304.72;4903814;29;20459;-86
2022/05/11 14:52:12;;;;;;;8.00;1.90;;;;;;;33.87;nan;101305.38;4933178;29;20454;-85
2022/05/11 15:06:03;;;;;;;11.47;1.73;;;;;;;33.59;nan;101285.91;4939220;29;20406;-86
2022/05/11 15:08:30;;;;;;;5.90;1.70;;;;;;;33.64;nan;101290.56;4921308;29;20485;-86
2022/05/11 15:13:44;;;;;;;7.27;2.00;;;;;;;33.36;nan;101280.75;4924573;29;20458;-86
2022/05/11 15:16:12;;;;;;;6.17;1.97;;;;;;;33.37;nan;101280.41;4921946;29;20451;-86
2022/05/11 15:18:40;;;;;;;7.40;2.23;;;;;;;33.44;nan;101277.91;4938128;29;20454;-86
2022/05/11 15:21:08;;;;;;;10.40;1.80;;;;;;;33.53;nan;101270.22;4922495;29;20446;-86
2022/05/11 15:23:35;;;;;;;5.50;1.90;;;;;;;33.65;nan;101271.56;4906806;29;20447;-86
2022/05/11 15:56:45;;;;;;;3.90;1.77;;;;;;;32.83;nan;101169.41;4957577;28;21073;-87
2022/05/11 15:59:16;;;;;;;13.73;2.30;;;;;;;32.78;nan;101180.06;4932065;28;20450;-86
2022/05/11 16:01:44;;;;;;;6.70;2.10;;;;;;;32.70;nan;101186.56;4925828;29;20450;-86
2022/05/11 16:04:12;;;;;;;8.73;2.13;;;;;;;32.68;nan;101186.03;4932590;29;20476;-86
2022/05/11 16:06:40;;;;;;;7.83;1.77;;;;;;;32.72;nan;101179.38;4924375;29;20490;-87
2022/05/11 16:09:12;;;;;;;14.97;1.80;;;;;;;32.82;nan;101173.41;4917168;28;20450;-86
2022/05/11 16:11:43;;;;;;;4.47;1.73;;;;;;;32.93;nan;101160.56;4953547;28;21044;-87
2022/05/11 16:14:13;;;;;;;8.73;1.73;;;;;;;33.11;nan;101160.56;4949945;28;20453;-86
2022/05/11 16:16:44;;;;;;;13.97;2.37;;;;;;;33.26;nan;101160.06;4967630;28;20450;-86
2022/05/11 16:22:00;;;;;;;5.73;1.50;;;;;;;33.63;nan;101139.44;4959616;28;20551;-86
2022/05/11 16:24:29;;;;;;;8.27;2.73;;;;;;;33.74;nan;101139.06;4942947;28;20456;-87
2022/05/11 16:26:57;;;;;;;8.40;2.27;;;;;;;33.73;nan;101131.72;4939506;28;20476;-87
2022/05/11 16:29:28;;;;;;;10.93;2.13;;;;;;;33.73;nan;101146.72;4949332;28;20466;-87
2022/05/11 16:31:57;;;;;;;4.33;1.70;;;;;;;33.57;nan;101154.97;4914082;28;21006;-87
2022/05/11 16:34:25;;;;;;;5.10;1.70;;;;;;;33.22;nan;101161.88;4924053;29;20473;-86
2022/05/11 16:36:53;;;;;;;9.00;1.70;;;;;;;32.81;nan;101165.25;4924198;29;20446;-86
2022/05/11 16:39:25;;;;;;;7.10;1.57;;;;;;;32.40;nan;101174.19;4937783;29;20454;-87
2022/05/11 16:41:56;;;;;;;13.23;1.53;;;;;;;31.91;nan;101188.34;4944586;29;20961;-86
2022/05/11 16:44:25;;;;;;;7.90;1.57;;;;;;;31.40;nan;101185.19;4923825;28;20447;-87
2022/05/11 16:46:55;;;;;;;9.10;2.27;;;;;;;30.98;nan;101192.19;4940302;28;20493;-86
2022/05/11 16:49:23;;;;;;;8.27;1.43;;;;;;;30.53;nan;101183.63;4939636;28;20458;-86